createdAt,value
2023-05-15T00:00:25.301Z,13.00
2023-05-15T00:05:27.492Z,12.90
2023-05-15T00:10:29.906Z,12.90
2023-05-15T00:15:32.386Z,12.90
2023-05-15T00:20:34.060Z,12.70
2023-05-15T00:25:35.783Z,12.70
2023-05-15T00:30:37.694Z,12.70
2023-05-15T00:35:39.529Z,12.60
2023-05-15T00:40:42.109Z,12.60
2023-05-15T00:45:44.869Z,12.50
2023-05-15T00:50:47.406Z,12.50
2023-05-15T00:55:50.683Z,12.50
2023-05-15T01:00:53.499Z,12.60
2023-05-15T01:05:56.873Z,12.70
2023-05-15T01:11:00.294Z,12.70
2023-05-15T01:16:04.160Z,12.80
2023-05-15T01:21:37.514Z,12.80
2023-05-15T01:27:07.260Z,12.80
2023-05-15T01:32:51.035Z,12.70
2023-05-15T01:38:17.832Z,12.70
2023-05-15T01:43:24.286Z,12.70
2023-05-15T01:48:28.871Z,12.60
2023-05-15T01:53:35.196Z,12.60
2023-05-15T01:58:42.114Z,12.60
2023-05-15T02:03:50.704Z,12.60
2023-05-15T02:08:54.932Z,12.60
2023-05-15T02:13:58.972Z,12.50
2023-05-15T02:19:01.010Z,12.50
2023-05-15T02:24:02.794Z,12.50
2023-05-15T02:29:27.559Z,12.50
2023-05-15T02:34:45.915Z,12.50
2023-05-15T02:39:54.312Z,12.50
2023-05-15T02:44:57.546Z,12.50
2023-05-15T02:50:02.804Z,12.50
2023-05-15T02:55:07.714Z,12.50
2023-05-15T03:00:13.602Z,12.60
2023-05-15T03:05:17.375Z,12.60
2023-05-15T03:10:24.657Z,12.70
2023-05-15T03:15:26.816Z,12.70
2023-05-15T03:20:34.071Z,12.70
2023-05-15T03:25:38.136Z,12.70
2023-05-15T03:30:39.878Z,12.60
2023-05-15T03:35:41.868Z,12.60
2023-05-15T03:40:43.588Z,12.70
2023-05-15T03:45:47.744Z,12.70
2023-05-15T03:50:50.937Z,12.70
2023-05-15T03:55:54.242Z,12.70
2023-05-15T04:00:56.318Z,12.90
2023-05-15T04:05:58.005Z,12.90
2023-05-15T04:11:00.181Z,12.80
2023-05-15T04:16:02.513Z,12.80
2023-05-15T04:21:04.239Z,12.90
2023-05-15T04:26:05.936Z,13.00
2023-05-15T04:31:10.448Z,13.10
2023-05-15T04:36:13.548Z,13.10
2023-05-15T04:41:15.481Z,13.20
2023-05-15T04:46:17.181Z,13.40
2023-05-15T04:51:18.924Z,13.40
2023-05-15T04:56:21.293Z,13.50
2023-05-15T05:01:23.427Z,13.60
2023-05-15T05:06:25.342Z,13.70
2023-05-15T05:11:27.128Z,13.80
2023-05-15T05:16:28.885Z,13.90
2023-05-15T05:21:32.592Z,14.10
2023-05-15T05:26:37.680Z,14.20
2023-05-15T05:31:39.389Z,14.30
2023-05-15T05:36:41.493Z,14.30
2023-05-15T05:41:43.914Z,14.30
2023-05-15T05:46:46.156Z,14.30
2023-05-15T05:51:52.537Z,14.40
2023-05-15T05:56:55.915Z,14.30
2023-05-15T06:01:57.836Z,14.40
2023-05-15T06:07:01.911Z,14.60
2023-05-15T06:12:08.479Z,14.70
2023-05-15T06:17:11.283Z,14.80
2023-05-15T06:22:13.059Z,14.90
2023-05-15T06:27:17.959Z,14.60
2023-05-15T06:32:22.013Z,14.60
2023-05-15T06:37:23.873Z,14.60
2023-05-15T06:42:25.788Z,14.70
2023-05-15T06:47:29.039Z,14.50
2023-05-15T06:52:32.355Z,14.50
2023-05-15T06:57:34.818Z,14.50
2023-05-15T07:02:36.749Z,14.50
2023-05-15T07:07:41.097Z,14.70
2023-05-15T07:12:43.122Z,14.80
2023-05-15T07:17:46.329Z,14.80
2023-05-15T07:22:56.286Z,15.00
2023-05-15T07:27:58.554Z,15.20
2023-05-15T07:33:00.375Z,15.40
2023-05-15T07:38:03.486Z,15.50
2023-05-15T07:43:08.321Z,15.60
2023-05-15T07:48:24.444Z,15.80
2023-05-15T07:53:26.406Z,16.10
2023-05-15T07:58:28.636Z,16.10
2023-05-15T08:03:31.658Z,16.20
2023-05-15T08:08:33.689Z,16.40
2023-05-15T08:13:35.429Z,16.60
2023-05-15T08:18:38.385Z,16.70
2023-05-15T08:23:40.093Z,16.80
2023-05-15T08:28:42.837Z,17.20
2023-05-15T08:33:44.895Z,17.20
2023-05-15T08:38:46.617Z,17.30
2023-05-15T08:43:53.684Z,17.50
2023-05-15T08:48:56.855Z,17.60
2023-05-15T08:54:00.927Z,17.70
2023-05-15T08:59:03.992Z,17.70
2023-05-15T09:04:06.767Z,17.80
2023-05-15T09:09:14.563Z,17.80
2023-05-15T09:14:18.097Z,17.80
2023-05-15T09:19:23.998Z,18.00
2023-05-15T09:24:29.216Z,18.10
2023-05-15T09:29:31.972Z,18.40
2023-05-15T09:34:35.865Z,18.40
2023-05-15T09:39:46.974Z,18.70
2023-05-15T09:44:48.872Z,18.80
2023-05-15T09:49:51.722Z,19.00
2023-05-15T09:54:55.703Z,19.20
2023-05-15T10:00:05.197Z,19.40
2023-05-15T10:05:08.090Z,19.20
2023-05-15T10:10:10.410Z,19.20
2023-05-15T10:15:15.393Z,19.20
2023-05-15T10:20:20.099Z,19.10
2023-05-15T10:25:42.868Z,19.30
2023-05-15T10:30:45.347Z,19.50
2023-05-15T10:35:49.410Z,19.40
2023-05-15T10:40:57.592Z,19.60
2023-05-15T10:46:07.942Z,19.50
2023-05-15T10:51:17.870Z,19.60
2023-05-15T10:56:23.433Z,19.80
2023-05-15T11:01:45.598Z,19.80
2023-05-15T11:06:50.999Z,20.10
2023-05-15T11:12:00.248Z,20.30
2023-05-15T11:17:07.621Z,20.30
2023-05-15T11:22:16.933Z,20.70
2023-05-15T11:27:29.871Z,21.20
2023-05-15T11:32:39.929Z,21.20
2023-05-15T11:38:04.508Z,21.00
2023-05-15T11:43:27.324Z,20.70
2023-05-15T11:48:35.220Z,20.50
2023-05-15T11:53:39.166Z,20.50
2023-05-15T11:58:43.143Z,20.00
2023-05-15T12:03:47.932Z,19.50
2023-05-15T12:08:53.624Z,19.40
2023-05-15T12:13:55.478Z,19.20
2023-05-15T12:18:58.717Z,19.40
2023-05-15T12:29:08.758Z,20.20
2023-05-15T12:34:11.423Z,21.50
2023-05-15T12:39:13.169Z,21.00
2023-05-15T12:44:18.977Z,21.50
2023-05-15T12:49:23.842Z,21.60
2023-05-15T12:54:26.493Z,21.70
2023-05-15T12:59:29.653Z,21.70
2023-05-15T13:04:33.459Z,22.20
2023-05-15T13:09:39.801Z,21.60
2023-05-15T13:14:43.020Z,21.50
2023-05-15T13:19:44.793Z,21.30
2023-05-15T13:24:50.113Z,21.70
2023-05-15T13:29:51.966Z,22.00
2023-05-15T13:34:54.992Z,22.00
2023-05-15T13:39:57.612Z,20.00
2023-05-15T13:44:59.500Z,19.10
2023-05-15T13:50:02.863Z,16.80
2023-05-15T13:55:05.641Z,17.20
2023-05-15T14:00:11.556Z,16.80
2023-05-15T14:05:19.972Z,16.80
2023-05-15T14:10:25.061Z,17.30
2023-05-15T14:15:28.053Z,18.30
2023-05-15T14:20:29.842Z,19.40
2023-05-15T14:25:42.768Z,20.00
2023-05-15T14:30:44.477Z,20.70
2023-05-15T14:35:47.650Z,21.10
2023-05-15T14:40:49.427Z,21.40
2023-05-15T14:45:52.008Z,21.70
2023-05-15T14:50:56.394Z,21.60
2023-05-15T14:55:58.610Z,21.00
2023-05-15T15:01:00.419Z,20.80
2023-05-15T15:06:02.269Z,21.80
2023-05-15T15:11:05.748Z,21.30
2023-05-15T15:16:08.219Z,22.30
2023-05-15T15:21:12.389Z,22.80
2023-05-15T15:26:14.768Z,21.80
2023-05-15T15:31:16.645Z,21.80
2023-05-15T15:36:25.538Z,22.80
2023-05-15T15:41:30.568Z,21.60
2023-05-15T15:46:33.138Z,21.00
2023-05-15T15:51:34.856Z,21.50
2023-05-15T15:56:37.673Z,21.10
2023-05-15T16:01:39.562Z,20.80
2023-05-15T16:06:41.501Z,20.50
2023-05-15T16:11:43.331Z,20.40
2023-05-15T16:16:46.624Z,21.00
2023-05-15T16:21:50.748Z,21.20
2023-05-15T16:26:53.786Z,21.50
2023-05-15T16:31:56.953Z,20.70
2023-05-15T16:37:00.171Z,21.00
2023-05-15T16:42:07.881Z,22.00
2023-05-15T16:47:12.180Z,22.90
2023-05-15T16:52:13.968Z,22.00
2023-05-15T16:57:16.325Z,21.40
2023-05-15T17:02:18.161Z,21.30
2023-05-15T17:07:21.552Z,21.90
2023-05-15T17:12:23.491Z,21.60
2023-05-15T17:17:28.089Z,21.30
2023-05-15T17:22:33.084Z,21.40
2023-05-15T17:27:39.742Z,21.10
2023-05-15T17:32:41.787Z,20.60
2023-05-15T17:37:45.115Z,21.10
2023-05-15T17:42:49.144Z,22.20
2023-05-15T17:47:51.119Z,22.30
2023-05-15T17:52:56.100Z,21.60
2023-05-15T17:57:58.480Z,21.30
2023-05-15T18:03:01.185Z,21.10
2023-05-15T18:08:03.722Z,20.50
2023-05-15T18:13:07.336Z,20.30
2023-05-15T18:18:09.017Z,20.20
2023-05-15T18:23:10.704Z,20.10
2023-05-15T18:28:13.408Z,19.90
2023-05-15T18:33:17.303Z,19.70
2023-05-15T18:38:19.190Z,19.60
2023-05-15T18:43:22.082Z,19.50
2023-05-15T18:48:23.854Z,19.40
2023-05-15T18:53:25.640Z,19.30
2023-05-15T18:58:27.371Z,19.10
2023-05-15T19:03:29.339Z,19.00
2023-05-15T19:08:31.180Z,18.90
2023-05-15T19:13:33.166Z,18.70
2023-05-15T19:18:34.969Z,18.60
2023-05-15T19:23:36.750Z,18.20
2023-05-15T19:28:38.548Z,18.00
2023-05-15T19:33:40.655Z,17.90
2023-05-15T19:38:44.542Z,17.70
2023-05-15T19:43:47.020Z,17.50
2023-05-15T19:48:48.932Z,17.40
2023-05-15T19:53:51.976Z,17.30
2023-05-15T19:58:54.369Z,17.20
2023-05-15T20:03:56.427Z,17.10
2023-05-15T20:08:58.243Z,17.10
2023-05-15T20:14:00.175Z,17.00
2023-05-15T20:19:02.055Z,16.90
2023-05-15T20:24:04.205Z,16.80
2023-05-15T20:29:05.967Z,16.80
2023-05-15T20:34:10.637Z,16.70
2023-05-15T20:39:14.368Z,16.70
2023-05-15T20:44:16.634Z,16.50
2023-05-15T20:49:18.619Z,16.40
2023-05-15T20:54:20.550Z,16.30
2023-05-15T20:59:22.404Z,16.10
2023-05-15T21:04:24.232Z,16.00
2023-05-15T21:09:27.113Z,15.90
2023-05-15T21:14:29.454Z,15.90
2023-05-15T21:19:31.310Z,15.80
2023-05-15T21:24:33.122Z,15.70
2023-05-15T21:29:35.040Z,15.60
2023-05-15T21:34:37.829Z,15.50
2023-05-15T21:39:39.634Z,15.40
2023-05-15T21:44:41.760Z,15.30
2023-05-15T21:49:43.770Z,15.20
2023-05-15T21:54:47.168Z,15.00
2023-05-15T21:59:49.021Z,14.90
2023-05-15T22:04:50.986Z,14.80
2023-05-15T22:09:54.100Z,14.80
2023-05-15T22:14:58.737Z,14.70
2023-05-15T22:20:02.648Z,14.60
2023-05-15T22:25:05.579Z,14.50
2023-05-15T22:30:08.557Z,14.50
2023-05-15T22:35:11.277Z,14.40
2023-05-15T22:40:13.291Z,14.30
2023-05-15T22:45:16.515Z,14.30
2023-05-15T22:50:19.044Z,14.20
2023-05-15T22:55:20.765Z,14.10
2023-05-15T23:00:22.465Z,14.10
2023-05-15T23:05:24.894Z,14.00
2023-05-15T23:10:26.815Z,14.00
2023-05-15T23:15:28.741Z,13.90
2023-05-15T23:20:30.675Z,13.80
2023-05-15T23:25:32.486Z,13.80
2023-05-15T23:30:34.211Z,13.80
2023-05-15T23:35:35.912Z,13.60
2023-05-15T23:40:37.694Z,13.70
2023-05-15T23:45:39.356Z,13.60
2023-05-15T23:50:41.023Z,13.40
2023-05-15T23:55:42.740Z,13.40
